createdAt,value
2023-04-08T00:01:40.056Z,11.30
2023-04-08T00:04:09.720Z,10.70
2023-04-08T00:06:37.385Z,10.93
2023-04-08T00:09:04.147Z,10.83
2023-04-08T00:11:31.087Z,11.00
2023-04-08T00:13:57.960Z,10.57
2023-04-08T00:16:24.951Z,10.63
2023-04-08T00:18:52.307Z,10.17
2023-04-08T00:21:20.996Z,11.00
2023-04-08T00:23:47.831Z,10.83
2023-04-08T00:26:14.463Z,10.20
2023-04-08T00:28:42.705Z,10.55
2023-04-08T00:31:09.920Z,11.13
2023-04-08T00:33:37.013Z,11.27
2023-04-08T00:36:03.845Z,9.90
2023-04-08T00:38:31.073Z,10.43
2023-04-08T00:40:58.574Z,10.67
2023-04-08T00:43:25.422Z,10.43
2023-04-08T00:45:52.562Z,9.47
2023-04-08T00:48:19.262Z,10.00
2023-04-08T00:50:47.171Z,9.70
2023-04-08T00:53:18.108Z,9.67
2023-04-08T00:55:45.410Z,8.93
2023-04-08T00:58:13.831Z,9.37
2023-04-08T01:00:45.919Z,9.40
2023-04-08T01:03:36.688Z,8.93
2023-04-08T01:06:29.147Z,9.33
2023-04-08T01:08:58.219Z,8.80
2023-04-08T01:11:27.289Z,9.48
2023-04-08T01:13:56.484Z,9.47
2023-04-08T01:16:25.887Z,8.70
2023-04-08T01:18:54.293Z,9.30
2023-04-08T01:21:24.020Z,9.47
2023-04-08T01:24:02.178Z,9.30
2023-04-08T01:26:29.416Z,9.10
2023-04-08T01:28:59.299Z,9.33
2023-04-08T01:31:26.879Z,9.57
2023-04-08T01:33:55.363Z,10.17
2023-04-08T01:36:24.189Z,10.87
2023-04-08T01:38:51.600Z,10.48
2023-04-08T01:41:19.593Z,10.77
2023-04-08T01:43:47.340Z,10.53
2023-04-08T01:46:15.428Z,12.30
2023-04-08T01:48:42.861Z,11.60
2023-04-08T01:51:09.875Z,12.40
2023-04-08T01:53:37.071Z,12.70
2023-04-08T01:56:12.238Z,12.97
2023-04-08T01:58:42.764Z,13.37
2023-04-08T02:01:14.195Z,14.73
2023-04-08T02:03:44.790Z,14.07
2023-04-08T02:06:11.574Z,14.63
2023-04-08T02:08:38.222Z,14.80
2023-04-08T02:11:05.038Z,14.77
2023-04-08T02:13:32.488Z,14.55
2023-04-08T02:16:31.690Z,15.10
2023-04-08T02:19:09.658Z,15.23
2023-04-08T02:21:46.316Z,14.88
2023-04-08T02:24:15.455Z,13.70
2023-04-08T02:26:43.978Z,14.57
2023-04-08T02:29:16.361Z,14.20
2023-04-08T02:31:43.859Z,14.13
2023-04-08T02:34:11.962Z,15.15
2023-04-08T02:36:40.949Z,14.17
2023-04-08T02:39:08.046Z,15.25
2023-04-08T02:41:34.946Z,15.15
2023-04-08T02:44:01.627Z,14.68
2023-04-08T02:46:28.315Z,15.33
2023-04-08T02:48:54.959Z,14.15
2023-04-08T02:51:21.586Z,15.88
2023-04-08T02:53:48.259Z,16.03
2023-04-08T02:56:14.867Z,14.73
2023-04-08T02:58:42.096Z,15.40
2023-04-08T03:01:09.477Z,14.23
2023-04-08T03:03:36.826Z,15.97
2023-04-08T03:06:04.224Z,14.90
2023-04-08T03:08:30.940Z,16.00
2023-04-08T03:10:57.647Z,15.50
2023-04-08T03:13:24.302Z,14.33
2023-04-08T03:15:50.941Z,15.77
2023-04-08T03:18:17.873Z,14.80
2023-04-08T03:20:44.595Z,15.47
2023-04-08T03:23:11.317Z,14.23
2023-04-08T03:25:38.114Z,13.83
2023-04-08T03:28:04.941Z,13.63
2023-04-08T03:30:32.535Z,13.53
2023-04-08T03:32:59.284Z,13.47
2023-04-08T03:35:26.424Z,14.73
2023-04-08T03:37:54.472Z,14.03
2023-04-08T03:40:21.104Z,14.10
2023-04-08T03:42:47.820Z,13.97
2023-04-08T03:45:14.502Z,15.80
2023-04-08T03:47:42.245Z,14.73
2023-04-08T03:50:09.365Z,14.53
2023-04-08T03:52:36.030Z,14.27
2023-04-08T03:55:02.860Z,14.33
2023-04-08T03:57:29.602Z,14.17
2023-04-08T03:59:56.601Z,13.70
2023-04-08T04:02:23.571Z,14.80
2023-04-08T04:04:50.338Z,13.90
2023-04-08T04:07:17.094Z,14.67
2023-04-08T04:09:43.722Z,13.10
2023-04-08T04:12:10.644Z,13.43
2023-04-08T04:14:37.241Z,13.50
2023-04-08T04:17:04.121Z,12.90
2023-04-08T04:19:31.946Z,13.13
2023-04-08T04:21:58.719Z,13.10
2023-04-08T04:24:25.566Z,12.97
2023-04-08T04:26:52.256Z,12.80
2023-04-08T04:29:19.074Z,12.67
2023-04-08T04:31:46.343Z,12.57
2023-04-08T04:34:13.374Z,13.23
2023-04-08T04:36:40.385Z,13.10
2023-04-08T04:39:07.079Z,13.23
2023-04-08T04:41:35.267Z,12.90
2023-04-08T04:44:02.019Z,12.57
2023-04-08T04:46:28.651Z,12.57
2023-04-08T04:48:55.738Z,12.30
2023-04-08T04:51:22.364Z,13.40
2023-04-08T04:53:50.152Z,11.73
2023-04-08T04:56:16.748Z,12.90
2023-04-08T04:58:43.489Z,13.43
2023-04-08T05:01:10.568Z,12.57
2023-04-08T05:03:37.328Z,12.23
2023-04-08T05:06:04.187Z,11.97
2023-04-08T05:08:31.044Z,12.77
2023-04-08T05:10:59.556Z,12.20
2023-04-08T05:13:26.965Z,12.60
2023-04-08T05:15:53.793Z,13.33
2023-04-08T05:18:20.692Z,12.43
2023-04-08T05:20:47.386Z,13.50
2023-04-08T05:23:14.177Z,12.83
2023-04-08T05:25:41.025Z,12.55
2023-04-08T05:28:07.684Z,13.23
2023-04-08T05:30:34.368Z,11.93
2023-04-08T05:33:01.207Z,12.32
2023-04-08T05:35:29.160Z,12.50
2023-04-08T05:37:56.350Z,14.13
2023-04-08T05:40:23.152Z,12.93
2023-04-08T05:42:49.758Z,12.37
2023-04-08T05:45:16.692Z,12.90
2023-04-08T05:47:43.778Z,13.67
2023-04-08T05:50:11.678Z,13.75
2023-04-08T05:52:42.767Z,14.03
2023-04-08T05:55:09.577Z,13.50
2023-04-08T05:57:36.737Z,13.30
2023-04-08T06:00:05.538Z,12.93
2023-04-08T06:02:32.329Z,13.75
2023-04-08T06:04:59.153Z,13.30
2023-04-08T06:07:25.999Z,13.33
2023-04-08T06:09:52.747Z,13.45
2023-04-08T06:12:19.331Z,13.93
2023-04-08T06:14:46.032Z,13.33
2023-04-08T06:17:12.656Z,12.75
2023-04-08T06:19:39.263Z,13.35
2023-04-08T06:22:06.277Z,12.33
2023-04-08T06:24:33.466Z,12.38
2023-04-08T06:27:00.442Z,12.10
2023-04-08T06:29:28.216Z,11.05
2023-04-08T06:31:55.705Z,11.43
2023-04-08T06:34:22.465Z,12.75
2023-04-08T06:36:50.313Z,12.13
2023-04-08T06:39:17.245Z,12.27
2023-04-08T06:41:43.957Z,11.27
2023-04-08T06:44:10.893Z,11.27
2023-04-08T06:46:37.524Z,10.88
2023-04-08T06:49:04.661Z,11.40
2023-04-08T06:51:31.974Z,10.73
2023-04-08T06:53:58.753Z,10.38
2023-04-08T06:56:26.308Z,10.32
2023-04-08T06:58:53.607Z,11.02
2023-04-08T07:01:20.485Z,10.82
2023-04-08T07:03:47.460Z,10.55
2023-04-08T07:06:16.469Z,10.38
2023-04-08T07:08:43.145Z,11.10
2023-04-08T07:11:09.753Z,11.73
2023-04-08T07:13:36.330Z,9.88
2023-04-08T07:16:03.222Z,11.02
2023-04-08T07:18:29.903Z,11.63
2023-04-08T07:20:58.017Z,11.13
2023-04-08T07:23:24.797Z,10.70
2023-04-08T07:25:51.516Z,10.52
2023-04-08T07:28:18.569Z,11.07
2023-04-08T07:30:45.377Z,10.45
2023-04-08T07:33:12.367Z,10.77
2023-04-08T07:35:39.254Z,11.10
2023-04-08T07:38:11.398Z,10.68
2023-04-08T07:40:38.023Z,10.82
2023-04-08T07:43:05.165Z,11.63
2023-04-08T07:45:32.169Z,11.43
2023-04-08T07:47:59.119Z,12.00
2023-04-08T07:50:26.099Z,10.77
2023-04-08T07:52:53.400Z,10.77
2023-04-08T07:55:20.886Z,10.85
2023-04-08T07:57:47.862Z,11.48
2023-04-08T08:00:21.097Z,11.95
2023-04-08T08:02:48.859Z,12.10
2023-04-08T08:05:15.804Z,11.75
2023-04-08T08:07:42.582Z,12.50
2023-04-08T08:10:11.133Z,12.55
2023-04-08T08:12:37.868Z,12.50
2023-04-08T08:15:04.814Z,13.05
2023-04-08T08:17:33.560Z,11.70
2023-04-08T08:20:01.083Z,12.77
2023-04-08T08:22:27.737Z,12.00
2023-04-08T08:24:58.196Z,11.98
2023-04-08T08:27:25.462Z,11.90
2023-04-08T08:29:52.637Z,11.73
2023-04-08T08:32:19.326Z,13.52
2023-04-08T08:34:46.059Z,12.68
2023-04-08T08:37:12.686Z,12.27
2023-04-08T08:39:39.351Z,11.63
2023-04-08T08:42:06.065Z,12.00
2023-04-08T08:44:32.780Z,12.48
2023-04-08T08:47:00.590Z,11.75
2023-04-08T08:49:27.470Z,11.52
2023-04-08T08:51:55.351Z,11.25
2023-04-08T08:54:22.266Z,12.25
2023-04-08T08:56:49.205Z,12.52
2023-04-08T08:59:15.963Z,12.02
2023-04-08T09:01:42.831Z,11.77
2023-04-08T09:04:14.648Z,11.90
2023-04-08T09:06:41.639Z,11.73
2023-04-08T09:09:11.663Z,11.45
2023-04-08T09:11:43.554Z,12.77
2023-04-08T09:14:25.154Z,12.48
2023-04-08T09:16:52.866Z,12.45
2023-04-08T09:19:20.495Z,12.02
2023-04-08T09:22:08.652Z,13.15
2023-04-08T09:24:37.014Z,12.25
2023-04-08T09:27:05.670Z,12.57
2023-04-08T09:29:35.821Z,12.60
2023-04-08T09:32:04.658Z,12.52
2023-04-08T09:34:34.257Z,12.70
2023-04-08T09:37:01.607Z,11.48
2023-04-08T09:39:28.352Z,11.43
2023-04-08T09:42:01.155Z,11.68
2023-04-08T09:44:29.957Z,12.00
2023-04-08T09:47:07.366Z,11.20
2023-04-08T09:50:05.299Z,12.98
2023-04-08T09:52:44.083Z,11.88
2023-04-08T09:55:13.931Z,11.93
2023-04-08T09:57:44.496Z,11.73
2023-04-08T10:00:16.390Z,12.10
2023-04-08T10:03:15.074Z,12.38
2023-04-08T10:05:44.190Z,12.10
2023-04-08T10:08:11.557Z,11.07
2023-04-08T10:10:42.544Z,11.93
2023-04-08T10:13:09.595Z,11.95
2023-04-08T10:15:38.323Z,11.98
2023-04-08T10:18:08.316Z,11.00
2023-04-08T10:20:36.091Z,12.15
2023-04-08T10:23:04.581Z,11.38
2023-04-08T10:25:39.542Z,13.10
2023-04-08T10:28:15.597Z,12.10
2023-04-08T10:30:43.561Z,12.07
2023-04-08T10:33:16.352Z,12.38
2023-04-08T10:35:48.597Z,12.10
2023-04-08T10:38:16.852Z,11.45
2023-04-08T10:40:44.465Z,11.70
2023-04-08T10:43:13.284Z,12.80
2023-04-08T10:45:41.342Z,12.43
2023-04-08T10:48:18.183Z,12.48
2023-04-08T10:51:01.020Z,13.45
2023-04-08T10:53:29.947Z,13.57
2023-04-08T10:56:15.763Z,12.93
2023-04-08T10:58:59.327Z,12.27
2023-04-08T11:01:26.726Z,12.45
2023-04-08T11:03:53.950Z,13.02
2023-04-08T11:06:20.909Z,12.68
2023-04-08T11:08:48.065Z,13.35
2023-04-08T11:11:15.306Z,12.77
2023-04-08T11:13:52.576Z,12.75
2023-04-08T11:16:22.287Z,12.90
2023-04-08T11:18:50.847Z,12.55
2023-04-08T11:21:17.987Z,12.85
2023-04-08T11:23:45.228Z,12.88
2023-04-08T11:26:13.486Z,13.82
2023-04-08T11:28:40.394Z,13.00
2023-04-08T11:31:08.922Z,14.68
2023-04-08T11:33:36.421Z,13.40
2023-04-08T11:36:08.295Z,13.63
2023-04-08T11:38:40.528Z,13.93
2023-04-08T11:41:08.032Z,12.45
2023-04-08T11:43:36.569Z,12.23
2023-04-08T11:46:13.175Z,12.57
2023-04-08T11:48:39.910Z,12.07
2023-04-08T11:51:09.306Z,12.80
2023-04-08T11:53:39.350Z,12.25
2023-04-08T11:56:25.947Z,11.73
2023-04-08T11:58:53.176Z,11.90
2023-04-08T12:01:21.059Z,12.00
2023-04-08T12:03:58.972Z,11.70
2023-04-08T12:06:27.694Z,11.30
2023-04-08T12:08:55.837Z,11.40
2023-04-08T12:11:22.935Z,12.20
2023-04-08T12:13:50.905Z,12.02
2023-04-08T12:16:18.519Z,12.20
2023-04-08T12:18:45.638Z,12.23
2023-04-08T12:21:12.532Z,13.15
2023-04-08T12:23:39.349Z,12.30
2023-04-08T12:26:06.481Z,13.07
2023-04-08T12:28:34.704Z,12.57
2023-04-08T12:31:01.971Z,12.90
2023-04-08T12:33:28.805Z,12.93
2023-04-08T12:35:55.913Z,13.20
2023-04-08T12:38:22.674Z,12.65
2023-04-08T12:40:50.261Z,12.88
2023-04-08T12:43:17.617Z,13.25
2023-04-08T12:45:44.433Z,13.13
2023-04-08T12:48:11.211Z,14.75
2023-04-08T12:50:38.025Z,13.88
2023-04-08T12:53:04.631Z,14.27
2023-04-08T12:55:31.939Z,14.27
2023-04-08T12:57:58.616Z,14.25
2023-04-08T13:00:26.442Z,15.10
2023-04-08T13:02:53.330Z,14.10
2023-04-08T13:05:29.425Z,14.48
2023-04-08T13:08:00.317Z,13.57
2023-04-08T13:10:27.252Z,13.43
2023-04-08T13:12:54.613Z,14.40
2023-04-08T13:15:22.323Z,12.82
2023-04-08T13:17:49.345Z,12.95
2023-04-08T13:20:16.356Z,12.05
2023-04-08T13:22:44.262Z,12.75
2023-04-08T13:25:11.083Z,12.50
2023-04-08T13:27:37.758Z,12.35
2023-04-08T13:30:04.822Z,11.75
2023-04-08T13:32:31.725Z,13.02
2023-04-08T13:34:58.410Z,12.40
2023-04-08T13:37:25.125Z,12.23
2023-04-08T13:39:52.275Z,12.45
2023-04-08T13:42:19.011Z,12.57
2023-04-08T13:44:45.767Z,12.48
2023-04-08T13:47:12.701Z,11.82
2023-04-08T13:49:39.554Z,11.55
2023-04-08T13:52:06.226Z,12.32
2023-04-08T13:54:36.294Z,12.52
2023-04-08T13:57:03.036Z,11.77
2023-04-08T13:59:29.725Z,11.43
2023-04-08T14:01:56.730Z,11.88
2023-04-08T14:04:23.844Z,11.60
2023-04-08T14:06:51.638Z,11.48
2023-04-08T14:09:18.501Z,11.82
2023-04-08T14:11:45.645Z,11.45
2023-04-08T14:14:12.720Z,11.60
2023-04-08T14:16:39.507Z,11.38
2023-04-08T14:19:06.369Z,12.05
2023-04-08T14:21:33.435Z,12.18
2023-04-08T14:24:02.562Z,12.05
2023-04-08T14:26:29.552Z,12.43
2023-04-08T14:28:56.828Z,12.05
2023-04-08T14:31:23.494Z,12.25
2023-04-08T14:33:50.741Z,12.13
2023-04-08T14:36:17.647Z,11.82
2023-04-08T14:38:44.792Z,12.25
2023-04-08T14:41:11.679Z,11.45
2023-04-08T14:43:38.527Z,11.98
2023-04-08T14:46:05.774Z,12.60
2023-04-08T14:48:36.111Z,13.32
2023-04-08T14:51:02.906Z,12.85
2023-04-08T14:53:29.626Z,13.45
2023-04-08T14:55:56.719Z,12.30
2023-04-08T14:58:23.727Z,13.45
2023-04-08T15:00:52.012Z,13.73
2023-04-08T15:03:19.124Z,14.30
2023-04-08T15:05:45.884Z,13.85
2023-04-08T15:08:23.396Z,13.77
2023-04-08T15:10:50.441Z,12.75
2023-04-08T15:13:17.135Z,12.52
2023-04-08T15:15:43.880Z,13.40
2023-04-08T15:18:10.908Z,14.15
2023-04-08T15:20:37.922Z,14.80
2023-04-08T15:23:05.165Z,14.63
2023-04-08T15:25:33.349Z,14.98
2023-04-08T15:28:00.156Z,15.30
2023-04-08T15:30:27.729Z,15.00
2023-04-08T15:32:57.561Z,15.05
2023-04-08T15:35:24.341Z,15.15
2023-04-08T15:37:51.089Z,14.77
2023-04-08T15:40:18.054Z,13.80
2023-04-08T15:42:44.880Z,14.20
2023-04-08T15:45:11.892Z,15.25
2023-04-08T15:47:38.744Z,16.70
2023-04-08T15:50:06.502Z,15.05
2023-04-08T15:52:35.125Z,14.63
2023-04-08T15:55:02.711Z,14.55
2023-04-08T15:57:31.080Z,15.05
2023-04-08T15:59:57.922Z,15.50
2023-04-08T16:02:27.145Z,15.77
2023-04-08T16:04:54.139Z,15.75
2023-04-08T16:07:21.122Z,16.60
2023-04-08T16:09:47.777Z,16.55
2023-04-08T16:12:15.001Z,16.08
2023-04-08T16:14:41.680Z,15.73
2023-04-08T16:17:09.309Z,16.15
2023-04-08T16:19:36.130Z,16.80
2023-04-08T16:22:08.233Z,16.92
2023-04-08T16:24:37.997Z,16.38
2023-04-08T16:27:05.417Z,16.13
2023-04-08T16:29:34.763Z,15.77
2023-04-08T16:32:01.984Z,16.75
2023-04-08T16:34:34.834Z,16.17
2023-04-08T16:37:01.845Z,16.17
2023-04-08T16:39:28.592Z,17.33
2023-04-08T16:41:55.334Z,17.50
2023-04-08T16:44:22.161Z,17.63
2023-04-08T16:46:48.737Z,16.10
2023-04-08T16:49:17.554Z,16.73
2023-04-08T16:51:44.919Z,17.63
2023-04-08T16:54:11.900Z,17.77
2023-04-08T16:56:45.475Z,18.55
2023-04-08T16:59:12.945Z,18.80
2023-04-08T17:01:39.723Z,19.88
2023-04-08T17:04:06.986Z,20.80
2023-04-08T17:06:41.111Z,24.65
2023-04-08T17:09:08.996Z,22.20
2023-04-08T17:11:36.036Z,44.55
2023-04-08T17:14:02.844Z,60.30
2023-04-08T17:16:29.602Z,43.85
2023-04-08T17:18:56.606Z,30.48
2023-04-08T17:21:23.595Z,27.48
2023-04-08T17:23:52.329Z,26.38
2023-04-08T17:26:19.286Z,22.40
2023-04-08T17:28:45.857Z,23.45
2023-04-08T17:31:12.417Z,24.17
2023-04-08T17:33:39.062Z,21.55
2023-04-08T17:36:06.434Z,22.60
2023-04-08T17:38:33.942Z,23.02
2023-04-08T17:41:04.178Z,23.85
2023-04-08T17:43:31.164Z,23.35
2023-04-08T17:46:01.771Z,21.30
2023-04-08T17:48:32.212Z,21.40
2023-04-08T17:51:03.240Z,21.90
2023-04-08T17:53:30.598Z,21.88
2023-04-08T17:55:58.077Z,22.00
2023-04-08T17:58:24.696Z,23.38
2023-04-08T18:00:51.946Z,22.48
2023-04-08T18:03:20.015Z,23.55
2023-04-08T18:05:46.914Z,24.05
2023-04-08T18:08:14.338Z,26.38
2023-04-08T18:10:43.456Z,24.40
2023-04-08T18:13:11.882Z,24.08
2023-04-08T18:15:39.723Z,25.95
2023-04-08T18:18:06.704Z,27.27
2023-04-08T18:20:38.289Z,30.33
2023-04-08T18:23:04.991Z,29.35
2023-04-08T18:25:32.276Z,29.35
2023-04-08T18:27:59.979Z,27.73
2023-04-08T18:30:26.827Z,28.75
2023-04-08T18:32:53.560Z,26.50
2023-04-08T18:35:20.324Z,26.20
2023-04-08T18:37:47.031Z,27.40
2023-04-08T18:40:13.747Z,28.70
2023-04-08T18:42:40.655Z,27.65
2023-04-08T18:45:07.725Z,28.02
2023-04-08T18:47:34.319Z,29.77
2023-04-08T18:50:01.647Z,29.95
2023-04-08T18:52:28.229Z,29.13
2023-04-08T18:54:54.821Z,30.05
2023-04-08T18:57:21.987Z,30.90
2023-04-08T18:59:48.714Z,31.42
2023-04-08T19:02:16.472Z,29.77
2023-04-08T19:04:43.133Z,30.38
2023-04-08T19:07:09.816Z,30.20
2023-04-08T19:09:36.475Z,30.75
2023-04-08T19:12:03.066Z,31.52
2023-04-08T19:14:29.942Z,31.17
2023-04-08T19:16:56.568Z,32.17
2023-04-08T19:19:23.168Z,31.27
2023-04-08T19:21:49.796Z,31.88
2023-04-08T19:24:16.363Z,33.75
2023-04-08T19:26:42.948Z,29.70
2023-04-08T19:29:09.628Z,29.95
2023-04-08T19:31:36.249Z,29.85
2023-04-08T19:34:02.868Z,29.77
2023-04-08T19:36:29.501Z,29.83
2023-04-08T19:38:56.109Z,31.00
2023-04-08T19:41:23.127Z,31.50
2023-04-08T19:43:49.958Z,32.88
2023-04-08T19:46:16.880Z,30.92
2023-04-08T19:48:44.321Z,32.47
2023-04-08T19:51:16.988Z,33.75
2023-04-08T19:53:43.607Z,36.38
2023-04-08T19:56:10.794Z,37.28
2023-04-08T19:58:37.599Z,37.45
2023-04-08T20:01:04.354Z,38.20
2023-04-08T20:03:31.269Z,40.15
2023-04-08T20:05:58.046Z,39.00
2023-04-08T20:08:24.651Z,38.13
2023-04-08T20:10:51.316Z,36.83
2023-04-08T20:13:17.876Z,41.92
2023-04-08T20:15:45.623Z,51.85
2023-04-08T20:18:12.467Z,51.83
2023-04-08T20:20:39.225Z,50.47
2023-04-08T20:23:06.257Z,48.22
2023-04-08T20:25:32.884Z,41.80
2023-04-08T20:27:59.440Z,40.70
2023-04-08T20:30:26.171Z,35.65
2023-04-08T20:32:52.854Z,32.70
2023-04-08T20:35:19.583Z,34.58
2023-04-08T20:37:46.426Z,32.30
2023-04-08T20:40:13.459Z,35.53
2023-04-08T20:42:40.162Z,34.58
2023-04-08T20:45:07.686Z,35.97
2023-04-08T20:47:34.488Z,35.75
2023-04-08T20:50:01.122Z,35.45
2023-04-08T20:52:27.728Z,34.20
2023-04-08T20:54:54.396Z,37.20
2023-04-08T20:57:21.083Z,36.63
2023-04-08T20:59:47.779Z,37.97
2023-04-08T21:02:15.735Z,37.25
2023-04-08T21:04:42.654Z,36.83
2023-04-08T21:07:09.953Z,38.75
2023-04-08T21:09:36.947Z,38.15
2023-04-08T21:12:04.253Z,38.10
2023-04-08T21:14:32.170Z,40.53
2023-04-08T21:16:58.858Z,40.60
2023-04-08T21:19:25.599Z,40.30
2023-04-08T21:21:52.296Z,43.38
2023-04-08T21:24:18.945Z,41.83
2023-04-08T21:26:45.811Z,43.05
2023-04-08T21:29:12.902Z,43.20
2023-04-08T21:31:41.337Z,41.10
2023-04-08T21:34:08.212Z,42.70
2023-04-08T21:36:34.887Z,43.42
2023-04-08T21:39:02.253Z,43.42
2023-04-08T21:41:30.565Z,43.78
2023-04-08T21:43:57.765Z,46.15
2023-04-08T21:46:25.347Z,46.42
2023-04-08T21:48:52.493Z,46.88
2023-04-08T21:51:19.331Z,46.20
2023-04-08T21:53:46.390Z,48.05
2023-04-08T21:56:14.294Z,49.22
2023-04-08T21:58:41.289Z,46.88
2023-04-08T22:01:08.079Z,45.78
2023-04-08T22:03:35.318Z,45.88
2023-04-08T22:06:02.173Z,46.60
2023-04-08T22:08:29.078Z,47.15
2023-04-08T22:10:55.811Z,46.08
2023-04-08T22:13:22.433Z,47.67
2023-04-08T22:15:49.006Z,45.40
2023-04-08T22:18:15.596Z,48.40
2023-04-08T22:20:42.317Z,48.35
2023-04-08T22:23:08.990Z,48.85
2023-04-08T22:25:35.611Z,50.35
2023-04-08T22:28:02.551Z,49.53
2023-04-08T22:30:30.324Z,49.63
2023-04-08T22:32:57.651Z,49.08
2023-04-08T22:35:24.522Z,50.90
2023-04-08T22:37:51.670Z,50.38
2023-04-08T22:40:18.456Z,50.33
2023-04-08T22:42:45.533Z,49.53
2023-04-08T22:45:12.461Z,47.80
2023-04-08T22:47:42.670Z,48.97
2023-04-08T22:50:11.255Z,50.75
2023-04-08T22:52:38.141Z,49.42
2023-04-08T22:55:06.812Z,48.78
2023-04-08T22:57:34.338Z,49.80
2023-04-08T23:00:03.430Z,50.90
2023-04-08T23:02:31.537Z,49.78
2023-04-08T23:04:58.240Z,51.42
2023-04-08T23:07:24.842Z,49.63
2023-04-08T23:09:51.889Z,51.58
2023-04-08T23:12:18.472Z,51.30
2023-04-08T23:14:45.556Z,52.88
2023-04-08T23:17:12.367Z,52.67
2023-04-08T23:19:38.980Z,51.30
2023-04-08T23:22:05.656Z,52.65
2023-04-08T23:24:34.088Z,50.83
2023-04-08T23:27:01.836Z,51.90
2023-04-08T23:29:28.462Z,51.10
2023-04-08T23:31:55.188Z,51.83
2023-04-08T23:34:21.782Z,52.45
2023-04-08T23:36:48.365Z,51.95
2023-04-08T23:39:15.045Z,53.08
2023-04-08T23:41:41.661Z,52.78
2023-04-08T23:44:09.678Z,53.75
2023-04-08T23:46:36.766Z,50.80
2023-04-08T23:49:03.371Z,52.10
2023-04-08T23:51:30.220Z,51.30
2023-04-08T23:53:56.786Z,52.90
2023-04-08T23:56:23.796Z,51.30
2023-04-08T23:58:50.973Z,51.03
